createdAt,value
2022-10-11T00:01:15.796Z,17.90
2022-10-11T00:03:46.173Z,19.40
2022-10-11T00:06:17.216Z,19.03
2022-10-11T00:08:46.109Z,17.80
2022-10-11T00:11:14.921Z,18.40
2022-10-11T00:13:43.969Z,19.77
2022-10-11T00:16:15.373Z,18.90
2022-10-11T00:18:45.225Z,18.23
2022-10-11T00:21:16.489Z,18.80
2022-10-11T00:23:45.997Z,17.80
2022-10-11T00:26:16.188Z,17.20
2022-10-11T00:28:45.265Z,13.87
2022-10-11T00:31:17.554Z,12.50
2022-10-11T00:33:48.413Z,10.63
2022-10-11T00:36:19.383Z,8.00
2022-10-11T00:38:48.078Z,7.23
2022-10-11T00:41:17.962Z,7.83
2022-10-11T00:43:46.666Z,6.97
2022-10-11T00:46:32.417Z,6.13
2022-10-11T00:49:18.328Z,5.93
2022-10-11T00:51:55.017Z,4.70
2022-10-11T00:54:28.548Z,4.33
2022-10-11T00:57:04.847Z,4.70
2022-10-11T00:59:40.220Z,4.40
2022-10-11T01:02:11.169Z,3.90
2022-10-11T01:04:42.918Z,4.40
2022-10-11T01:07:13.510Z,3.80
2022-10-11T01:09:42.003Z,3.70
2022-10-11T01:12:20.827Z,3.77
2022-10-11T01:15:14.935Z,3.50
2022-10-11T01:17:55.058Z,3.23
2022-10-11T01:20:45.029Z,2.93
2022-10-11T01:23:56.826Z,2.80
2022-10-11T01:27:16.296Z,2.90
2022-10-11T01:29:58.690Z,4.37
2022-10-11T01:32:40.074Z,3.40
2022-10-11T01:35:17.957Z,3.53
2022-10-11T01:37:57.444Z,2.90
2022-10-11T01:40:35.447Z,3.03
2022-10-11T01:43:06.666Z,3.23
2022-10-11T01:45:37.443Z,3.40
2022-10-11T01:48:12.562Z,2.93
2022-10-11T01:50:46.333Z,3.17
2022-10-11T01:53:48.618Z,3.47
2022-10-11T01:56:41.318Z,3.73
2022-10-11T01:59:42.093Z,3.70
2022-10-11T02:02:32.150Z,3.10
2022-10-11T02:05:12.046Z,2.87
2022-10-11T02:07:48.098Z,3.97
2022-10-11T02:10:27.941Z,3.13
2022-10-11T02:13:04.314Z,2.90
2022-10-11T02:15:36.861Z,2.77
2022-10-11T02:18:12.823Z,2.77
2022-10-11T02:20:45.080Z,2.90
2022-10-11T02:23:18.937Z,2.73
2022-10-11T02:25:51.518Z,2.70
2022-10-11T02:28:29.463Z,2.47
2022-10-11T02:31:01.763Z,2.77
2022-10-11T02:33:40.855Z,2.27
2022-10-11T02:36:21.973Z,2.50
2022-10-11T02:38:57.583Z,2.50
2022-10-11T02:41:34.495Z,2.37
2022-10-11T02:44:12.477Z,2.80
2022-10-11T02:46:44.213Z,3.20
2022-10-11T02:49:16.092Z,2.20
2022-10-11T02:51:46.696Z,2.70
2022-10-11T02:54:15.758Z,2.40
2022-10-11T02:56:44.763Z,2.50
2022-10-11T02:59:14.575Z,3.20
2022-10-11T03:01:43.117Z,2.80
2022-10-11T03:04:12.271Z,2.37
2022-10-11T03:06:41.231Z,2.77
2022-10-11T03:09:12.043Z,2.37
2022-10-11T03:11:41.538Z,3.83
2022-10-11T03:14:09.984Z,2.17
2022-10-11T03:16:38.501Z,2.80
2022-10-11T03:19:07.732Z,2.50
2022-10-11T03:21:36.996Z,3.50
2022-10-11T03:24:05.877Z,2.60
2022-10-11T03:26:35.731Z,2.70
2022-10-11T03:29:04.210Z,2.70
2022-10-11T03:31:32.714Z,2.70
2022-10-11T03:34:01.130Z,2.33
2022-10-11T03:36:30.051Z,2.40
2022-10-11T03:38:58.510Z,2.50
2022-10-11T03:41:27.866Z,2.27
2022-10-11T03:43:59.388Z,1.90
2022-10-11T03:46:28.413Z,2.30
2022-10-11T03:48:56.844Z,4.40
2022-10-11T03:51:25.253Z,2.60
2022-10-11T03:53:53.972Z,2.27
2022-10-11T03:56:22.413Z,2.00
2022-10-11T03:58:51.580Z,2.30
2022-10-11T04:01:21.498Z,2.07
2022-10-11T04:03:50.001Z,2.03
2022-10-11T04:06:19.492Z,2.87
2022-10-11T04:08:49.275Z,1.80
2022-10-11T04:11:17.737Z,2.43
2022-10-11T04:13:47.105Z,1.67
2022-10-11T04:16:15.985Z,2.00
2022-10-11T04:18:48.058Z,2.33
2022-10-11T04:21:16.518Z,2.43
2022-10-11T04:23:45.817Z,3.20
2022-10-11T04:26:15.695Z,2.23
2022-10-11T04:28:44.788Z,2.00
2022-10-11T04:31:13.327Z,2.10
2022-10-11T04:33:42.275Z,1.80
2022-10-11T04:36:12.935Z,4.77
2022-10-11T04:38:42.413Z,2.00
2022-10-11T04:41:13.285Z,1.90
2022-10-11T04:43:41.884Z,2.17
2022-10-11T04:46:12.329Z,2.30
2022-10-11T04:48:41.357Z,2.20
2022-10-11T04:51:12.653Z,2.23
2022-10-11T04:53:41.203Z,1.50
2022-10-11T04:56:12.034Z,2.47
2022-10-11T04:58:41.940Z,2.30
2022-10-11T05:01:12.853Z,2.10
2022-10-11T05:03:42.223Z,2.10
2022-10-11T05:06:12.603Z,1.50
2022-10-11T05:08:42.048Z,2.07
2022-10-11T05:11:16.330Z,2.13
2022-10-11T05:13:46.866Z,2.23
2022-10-11T05:16:18.022Z,2.10
2022-10-11T05:18:46.966Z,2.27
2022-10-11T05:21:21.067Z,2.17
2022-10-11T05:23:51.854Z,2.20
2022-10-11T05:26:22.184Z,2.27
2022-10-11T05:28:51.287Z,2.00
2022-10-11T05:31:20.315Z,1.70
2022-10-11T05:33:48.894Z,1.57
2022-10-11T05:36:19.250Z,1.60
2022-10-11T05:38:47.830Z,2.20
2022-10-11T05:41:18.262Z,1.73
2022-10-11T05:43:47.127Z,1.60
2022-10-11T05:46:15.937Z,2.10
2022-10-11T05:48:45.032Z,2.50
2022-10-11T05:51:15.002Z,2.40
2022-10-11T05:53:45.528Z,1.60
2022-10-11T05:56:22.322Z,2.10
2022-10-11T05:58:51.171Z,1.83
2022-10-11T06:01:22.585Z,2.20
2022-10-11T06:03:51.272Z,2.50
2022-10-11T06:06:21.835Z,2.57
2022-10-11T06:08:51.920Z,3.50
2022-10-11T06:11:23.504Z,1.93
2022-10-11T06:13:54.323Z,2.17
2022-10-11T06:16:23.595Z,2.90
2022-10-11T06:18:55.526Z,2.20
2022-10-11T06:21:25.146Z,2.07
2022-10-11T06:24:00.866Z,2.33
2022-10-11T06:26:30.661Z,2.10
2022-10-11T06:29:00.418Z,2.17
2022-10-11T06:31:30.034Z,1.90
2022-10-11T06:34:00.457Z,1.83
2022-10-11T06:36:30.039Z,2.47
2022-10-11T06:39:01.591Z,2.57
2022-10-11T06:41:32.376Z,2.00
2022-10-11T06:44:02.049Z,2.47
2022-10-11T06:46:34.387Z,2.10
2022-10-11T06:49:03.248Z,2.63
2022-10-11T06:51:32.825Z,3.30
2022-10-11T06:54:03.617Z,2.50
2022-10-11T06:56:34.140Z,2.40
2022-10-11T06:59:03.697Z,2.43
2022-10-11T07:01:32.851Z,1.80
2022-10-11T07:04:03.901Z,2.13
2022-10-11T07:06:33.387Z,1.97
2022-10-11T07:09:04.549Z,2.50
2022-10-11T07:11:33.209Z,2.57
2022-10-11T07:14:07.680Z,2.90
2022-10-11T07:16:38.039Z,3.00
2022-10-11T07:19:08.198Z,2.50
2022-10-11T07:21:37.846Z,2.67
2022-10-11T07:24:08.589Z,3.57
2022-10-11T07:26:38.543Z,3.33
2022-10-11T07:29:09.133Z,3.40
2022-10-11T07:31:40.244Z,2.83
2022-10-11T07:34:08.800Z,2.83
2022-10-11T07:36:37.792Z,3.40
2022-10-11T07:39:09.949Z,3.10
2022-10-11T07:41:45.488Z,2.87
2022-10-11T07:44:14.918Z,2.90
2022-10-11T07:46:43.429Z,2.23
2022-10-11T07:49:11.973Z,2.97
2022-10-11T07:51:40.996Z,2.43
2022-10-11T07:54:10.889Z,4.40
2022-10-11T07:56:40.278Z,3.30
2022-10-11T07:59:09.018Z,2.40
2022-10-11T08:01:38.433Z,3.03
2022-10-11T08:04:07.056Z,2.87
2022-10-11T08:06:36.643Z,2.30
2022-10-11T08:09:06.296Z,2.67
2022-10-11T08:11:39.114Z,2.67
2022-10-11T08:14:11.965Z,2.90
2022-10-11T08:16:42.079Z,3.13
2022-10-11T08:19:12.715Z,2.83
2022-10-11T08:21:41.810Z,2.90
2022-10-11T08:24:10.549Z,2.80
2022-10-11T08:26:41.701Z,2.27
2022-10-11T08:29:10.693Z,2.37
2022-10-11T08:31:39.111Z,2.80
2022-10-11T08:34:07.849Z,2.47
2022-10-11T08:36:37.599Z,2.80
2022-10-11T08:39:06.884Z,2.53
2022-10-11T08:41:46.998Z,2.20
2022-10-11T08:45:05.416Z,1.87
2022-10-11T08:47:33.599Z,2.93
2022-10-11T08:50:02.783Z,3.43
2022-10-11T08:52:46.020Z,2.00
2022-10-11T08:55:26.004Z,2.20
2022-10-11T08:57:57.801Z,2.03
2022-10-11T09:00:31.927Z,3.77
2022-10-11T09:03:11.866Z,1.87
2022-10-11T09:06:02.393Z,1.90
2022-10-11T09:08:46.519Z,2.13
2022-10-11T09:11:30.787Z,1.80
2022-10-11T09:14:28.218Z,2.67
2022-10-11T09:17:10.662Z,1.80
2022-10-11T09:20:16.686Z,2.00
2022-10-11T09:23:00.530Z,1.53
2022-10-11T09:25:35.079Z,2.20
2022-10-11T09:28:20.586Z,1.93
2022-10-11T09:30:55.972Z,1.93
2022-10-11T09:33:35.225Z,2.07
2022-10-11T09:36:16.809Z,2.00
2022-10-11T09:38:55.749Z,2.00
2022-10-11T09:41:35.761Z,2.10
2022-10-11T09:44:04.888Z,2.17
2022-10-11T09:46:41.336Z,1.73
2022-10-11T09:49:15.535Z,2.60
2022-10-11T09:51:52.988Z,1.57
2022-10-11T09:54:27.483Z,2.33
2022-10-11T09:56:56.284Z,2.40
2022-10-11T09:59:30.523Z,1.73
2022-10-11T10:02:23.942Z,1.70
2022-10-11T10:05:20.320Z,2.20
2022-10-11T10:08:26.987Z,1.50
2022-10-11T10:11:06.787Z,1.80
2022-10-11T10:13:51.150Z,2.00
2022-10-11T10:16:27.075Z,1.90
2022-10-11T10:19:00.955Z,2.50
2022-10-11T10:21:33.874Z,1.67
2022-10-11T10:24:09.401Z,1.80
2022-10-11T10:26:40.038Z,1.50
2022-10-11T10:29:20.178Z,1.60
2022-10-11T10:35:04.888Z,1.50
2022-10-11T10:37:40.399Z,1.97
2022-10-11T10:40:16.297Z,1.90
2022-10-11T10:42:44.932Z,1.57
2022-10-11T10:45:21.541Z,1.50
2022-10-11T10:48:23.757Z,2.27
2022-10-11T10:51:00.695Z,1.50
2022-10-11T10:53:36.085Z,1.50
2022-10-11T10:56:13.362Z,1.80
2022-10-11T10:59:04.858Z,1.47
2022-10-11T11:01:37.578Z,1.50
2022-10-11T11:04:23.406Z,1.37
2022-10-11T11:07:01.106Z,1.60
2022-10-11T11:09:50.573Z,1.20
2022-10-11T11:12:42.718Z,1.60
2022-10-11T11:15:26.412Z,1.90
2022-10-11T11:18:20.818Z,1.40
2022-10-11T11:21:10.693Z,1.23
2022-10-11T11:23:52.926Z,1.90
2022-10-11T11:26:34.643Z,1.60
2022-10-11T11:29:25.723Z,1.43
2022-10-11T11:32:18.017Z,1.80
2022-10-11T11:34:54.285Z,1.70
2022-10-11T11:37:29.909Z,1.90
2022-10-11T11:40:10.001Z,3.10
2022-10-11T11:42:47.258Z,1.80
2022-10-11T11:45:25.331Z,1.90
2022-10-11T11:48:04.166Z,2.03
2022-10-11T11:50:40.242Z,1.47
2022-10-11T11:53:17.140Z,2.03
2022-10-11T11:55:58.992Z,2.10
2022-10-11T11:58:38.668Z,1.63
2022-10-11T12:01:25.522Z,1.50
2022-10-11T12:04:04.212Z,2.47
2022-10-11T12:06:37.858Z,1.20
2022-10-11T12:09:23.090Z,1.53
2022-10-11T12:12:00.088Z,1.73
2022-10-11T12:14:39.275Z,1.73
2022-10-11T12:17:20.161Z,1.87
2022-10-11T12:20:18.223Z,1.60
2022-10-11T12:23:01.170Z,2.17
2022-10-11T12:25:44.371Z,1.60
2022-10-11T12:29:20.746Z,1.53
2022-10-11T12:32:14.172Z,1.70
2022-10-11T12:34:47.462Z,1.60
2022-10-11T12:37:52.301Z,1.70
2022-10-11T12:40:41.759Z,1.10
2022-10-11T12:43:26.729Z,1.90
2022-10-11T12:45:55.350Z,1.40
2022-10-11T12:48:59.344Z,1.93
2022-10-11T12:51:40.113Z,1.80
2022-10-11T12:54:40.469Z,1.57
2022-10-11T12:57:51.277Z,1.30
2022-10-11T13:00:28.017Z,1.37
2022-10-11T13:02:58.057Z,1.60
2022-10-11T13:05:36.027Z,1.70
2022-10-11T13:08:11.348Z,1.10
2022-10-11T13:10:45.607Z,1.80
2022-10-11T13:13:23.762Z,1.80
2022-10-11T13:15:55.952Z,1.50
2022-10-11T13:18:27.477Z,2.23
2022-10-11T13:20:57.345Z,1.33
2022-10-11T13:23:29.992Z,1.50
2022-10-11T13:26:02.111Z,1.40
2022-10-11T13:28:36.296Z,1.63
2022-10-11T13:31:06.765Z,1.63
2022-10-11T13:33:47.357Z,1.53
2022-10-11T13:36:19.534Z,1.33
2022-10-11T13:38:56.538Z,2.00
2022-10-11T13:41:28.358Z,1.50
2022-10-11T13:43:58.493Z,1.50
2022-10-11T13:46:30.459Z,2.30
2022-10-11T13:49:00.998Z,1.73
2022-10-11T13:51:35.317Z,1.70
2022-10-11T13:54:10.555Z,1.70
2022-10-11T13:56:51.106Z,2.03
2022-10-11T13:59:22.815Z,1.67
2022-10-11T14:01:58.769Z,2.77
2022-10-11T14:04:29.961Z,1.77
2022-10-11T14:07:03.888Z,1.90
2022-10-11T14:09:36.381Z,1.70
2022-10-11T14:12:33.000Z,1.53
2022-10-11T14:15:03.110Z,1.30
2022-10-11T14:17:41.953Z,1.40
2022-10-11T14:20:32.329Z,1.40
2022-10-11T14:23:03.130Z,1.97
2022-10-11T14:25:31.742Z,2.23
2022-10-11T14:28:00.901Z,1.60
2022-10-11T14:30:31.665Z,1.87
2022-10-11T14:33:03.889Z,2.30
2022-10-11T14:35:34.214Z,1.30
2022-10-11T14:38:04.211Z,1.73
2022-10-11T14:40:33.316Z,1.40
2022-10-11T14:43:01.997Z,1.73
2022-10-11T14:45:30.571Z,1.90
2022-10-11T14:48:00.336Z,1.27
2022-10-11T14:50:39.134Z,2.10
2022-10-11T14:53:11.634Z,1.70
2022-10-11T14:55:42.082Z,2.20
2022-10-11T14:58:16.737Z,1.53
2022-10-11T15:00:46.415Z,1.90
2022-10-11T15:03:15.212Z,1.80
2022-10-11T15:05:43.867Z,2.00
2022-10-11T15:08:16.119Z,1.77
2022-10-11T15:10:44.880Z,1.70
2022-10-11T15:13:13.459Z,2.30
2022-10-11T15:15:43.058Z,1.80
2022-10-11T15:18:16.745Z,2.20
2022-10-11T15:20:47.940Z,1.67
2022-10-11T15:23:18.495Z,1.77
2022-10-11T15:25:47.095Z,1.80
2022-10-11T15:28:26.532Z,1.50
2022-10-11T15:30:56.028Z,1.47
2022-10-11T15:33:25.909Z,1.70
2022-10-11T15:35:54.557Z,1.50
2022-10-11T15:38:26.466Z,1.60
2022-10-11T15:40:55.462Z,1.70
2022-10-11T15:43:25.221Z,1.80
2022-10-11T15:45:53.896Z,1.90
2022-10-11T15:48:26.375Z,1.63
2022-10-11T15:50:57.175Z,1.60
2022-10-11T15:53:31.351Z,1.50
2022-10-11T15:56:04.976Z,1.63
2022-10-11T15:58:35.814Z,1.43
2022-10-11T16:01:09.319Z,2.03
2022-10-11T16:03:38.182Z,1.40
2022-10-11T16:06:07.806Z,2.50
2022-10-11T16:08:38.888Z,2.50
2022-10-11T16:11:09.346Z,3.53
2022-10-11T16:13:38.385Z,4.33
2022-10-11T16:16:10.554Z,3.03
2022-10-11T16:18:39.827Z,3.73
2022-10-11T16:21:11.725Z,2.20
2022-10-11T16:23:41.858Z,2.33
2022-10-11T16:26:16.380Z,1.83
2022-10-11T16:28:45.502Z,2.57
2022-10-11T16:31:18.358Z,2.10
2022-10-11T16:33:46.947Z,27.60
2022-10-11T16:36:36.741Z,2.10
2022-10-11T16:39:12.146Z,2.00
2022-10-11T16:41:41.197Z,2.20
2022-10-11T16:44:14.243Z,2.00
2022-10-11T16:46:43.503Z,2.57
2022-10-11T16:49:12.019Z,2.00
2022-10-11T16:51:40.549Z,2.70
2022-10-11T16:54:10.637Z,2.60
2022-10-11T16:56:40.235Z,2.30
2022-10-11T16:59:09.267Z,2.33
2022-10-11T17:01:38.611Z,2.50
2022-10-11T17:04:07.379Z,2.67
2022-10-11T17:06:35.989Z,3.23
2022-10-11T17:09:05.619Z,2.27
2022-10-11T17:11:35.588Z,2.50
2022-10-11T17:14:05.417Z,1.77
2022-10-11T17:16:34.148Z,2.30
2022-10-11T17:19:03.057Z,2.03
2022-10-11T17:21:31.888Z,2.70
2022-10-11T17:24:00.334Z,2.90
2022-10-11T17:26:33.625Z,1.90
2022-10-11T17:29:03.646Z,2.70
2022-10-11T17:31:32.439Z,2.53
2022-10-11T17:34:02.536Z,2.50
2022-10-11T17:36:35.328Z,2.20
2022-10-11T17:39:08.996Z,2.47
2022-10-11T17:41:38.356Z,2.50
2022-10-11T17:44:08.610Z,2.03
2022-10-11T17:46:38.806Z,1.87
2022-10-11T17:49:10.215Z,2.30
2022-10-11T17:51:39.166Z,1.67
2022-10-11T17:54:12.382Z,2.00
2022-10-11T17:56:42.497Z,2.33
2022-10-11T17:59:20.997Z,2.10
2022-10-11T18:01:51.412Z,2.50
2022-10-11T18:04:22.235Z,1.93
2022-10-11T18:06:51.318Z,2.50
2022-10-11T18:09:20.185Z,2.23
2022-10-11T18:11:49.867Z,2.10
2022-10-11T18:14:21.179Z,2.17
2022-10-11T18:16:49.771Z,2.13
2022-10-11T18:19:18.282Z,2.73
2022-10-11T18:21:46.807Z,2.10
2022-10-11T18:24:17.968Z,2.50
2022-10-11T18:26:50.135Z,2.30
2022-10-11T18:29:20.035Z,2.37
2022-10-11T18:31:48.475Z,2.47
2022-10-11T18:34:17.101Z,2.57
2022-10-11T18:36:45.634Z,2.70
2022-10-11T18:39:16.719Z,2.60
2022-10-11T18:41:46.254Z,2.60
2022-10-11T18:44:16.553Z,2.50
2022-10-11T18:46:47.321Z,3.30
2022-10-11T18:49:15.919Z,2.73
2022-10-11T18:51:46.383Z,2.43
2022-10-11T18:54:18.513Z,2.47
2022-10-11T18:56:50.200Z,3.07
2022-10-11T18:59:18.778Z,3.33
2022-10-11T19:01:52.161Z,3.00
2022-10-11T19:04:21.123Z,2.70
2022-10-11T19:06:52.672Z,2.93
2022-10-11T19:09:23.341Z,2.90
2022-10-11T19:11:52.824Z,2.00
2022-10-11T19:14:25.833Z,2.07
2022-10-11T19:16:56.749Z,2.00
2022-10-11T19:19:28.396Z,2.23
2022-10-11T19:21:57.728Z,2.47
2022-10-11T19:24:28.488Z,2.07
2022-10-11T19:27:02.227Z,2.33
2022-10-11T19:29:32.663Z,2.60
2022-10-11T19:32:04.712Z,1.97
2022-10-11T19:34:33.566Z,2.40
2022-10-11T19:37:04.197Z,2.83
2022-10-11T19:39:33.985Z,2.70
2022-10-11T19:42:04.459Z,2.93
2022-10-11T19:44:38.663Z,2.90
2022-10-11T19:47:10.169Z,2.67
2022-10-11T19:49:38.737Z,2.30
2022-10-11T19:52:09.442Z,2.40
2022-10-11T19:54:38.243Z,3.30
2022-10-11T19:57:10.200Z,2.30
2022-10-11T19:59:38.781Z,2.10
2022-10-11T20:02:10.303Z,2.00
2022-10-11T20:04:54.263Z,1.90
2022-10-11T20:07:23.054Z,2.23
2022-10-11T20:09:51.658Z,2.30
2022-10-11T20:12:20.476Z,2.50
2022-10-11T20:14:49.404Z,2.37
2022-10-11T20:17:42.661Z,2.90
2022-10-11T20:20:12.062Z,2.60
2022-10-11T20:22:40.574Z,2.33
2022-10-11T20:25:10.352Z,2.50
2022-10-11T20:27:43.129Z,2.70
2022-10-11T20:30:14.854Z,3.00
2022-10-11T20:32:44.918Z,2.77
2022-10-11T20:35:13.536Z,2.80
2022-10-11T20:37:42.551Z,2.20
2022-10-11T20:40:13.673Z,3.07
2022-10-11T20:42:42.397Z,2.90
2022-10-11T20:45:12.107Z,3.17
2022-10-11T20:47:41.262Z,3.57
2022-10-11T20:50:13.294Z,3.73
2022-10-11T20:52:46.120Z,2.47
2022-10-11T20:55:15.080Z,2.70
2022-10-11T20:57:43.626Z,2.90
2022-10-11T21:00:13.994Z,2.10
2022-10-11T21:02:44.204Z,2.53
2022-10-11T21:05:17.775Z,2.87
2022-10-11T21:07:47.168Z,2.80
2022-10-11T21:10:19.131Z,2.20
2022-10-11T21:12:47.870Z,2.67
2022-10-11T21:15:19.516Z,2.60
2022-10-11T21:17:51.263Z,2.37
2022-10-11T21:20:21.416Z,2.43
2022-10-11T21:22:50.698Z,2.67
2022-10-11T21:25:19.481Z,2.63
2022-10-11T21:27:50.990Z,2.20
2022-10-11T21:30:20.001Z,2.20
2022-10-11T21:32:48.526Z,2.43
2022-10-11T21:35:18.723Z,2.90
2022-10-11T21:37:48.579Z,2.60
2022-10-11T21:40:17.401Z,2.47
2022-10-11T21:42:45.868Z,2.97
2022-10-11T21:45:17.676Z,3.00
2022-10-11T21:47:46.708Z,2.83
2022-10-11T21:50:15.303Z,2.60
2022-10-11T21:52:43.991Z,2.50
2022-10-11T21:55:15.422Z,2.63
2022-10-11T21:57:45.448Z,2.80
2022-10-11T22:00:15.443Z,3.50
2022-10-11T22:02:44.715Z,2.97
2022-10-11T22:05:13.860Z,2.47
2022-10-11T22:07:43.072Z,2.40
2022-10-11T22:10:13.067Z,2.50
2022-10-11T22:12:41.727Z,2.67
2022-10-11T22:15:12.562Z,2.33
2022-10-11T22:17:41.154Z,2.70
2022-10-11T22:20:12.319Z,2.93
2022-10-11T22:22:40.855Z,2.90
2022-10-11T22:25:10.510Z,2.90
2022-10-11T22:27:40.414Z,2.87
2022-10-11T22:30:10.741Z,4.00
2022-10-11T22:32:39.339Z,3.23
2022-10-11T22:35:09.371Z,3.80
2022-10-11T22:37:38.254Z,3.87
2022-10-11T22:40:08.362Z,4.77
2022-10-11T22:42:37.189Z,3.20
2022-10-11T22:45:08.570Z,2.80
2022-10-11T22:47:37.828Z,2.53
2022-10-11T22:50:09.353Z,2.30
2022-10-11T22:52:37.935Z,2.10
2022-10-11T22:55:07.841Z,2.90
2022-10-11T22:57:36.639Z,3.20
2022-10-11T23:00:09.023Z,2.20
2022-10-11T23:02:37.528Z,2.60
2022-10-11T23:05:06.530Z,2.30
2022-10-11T23:07:35.904Z,2.20
2022-10-11T23:10:05.669Z,2.87
2022-10-11T23:12:35.080Z,2.63
2022-10-11T23:15:04.114Z,2.10
2022-10-11T23:17:34.526Z,1.80
2022-10-11T23:20:03.519Z,2.43
2022-10-11T23:22:32.051Z,1.80
2022-10-11T23:25:00.554Z,2.37
2022-10-11T23:27:30.688Z,2.27
2022-10-11T23:29:59.234Z,2.23
2022-10-11T23:32:27.923Z,2.23
2022-10-11T23:34:57.892Z,1.80
2022-10-11T23:37:26.789Z,1.50
2022-10-11T23:39:55.310Z,2.17
2022-10-11T23:42:24.262Z,2.07
2022-10-11T23:44:54.256Z,1.70
2022-10-11T23:47:23.382Z,1.33
2022-10-11T23:49:53.049Z,1.67
2022-10-11T23:52:24.039Z,1.90
2022-10-11T23:54:52.586Z,1.97
2022-10-11T23:57:21.100Z,2.20
2022-10-11T23:59:50.632Z,2.10
